Aviation Digital Data Service (ADDS)

Output produced by TAFs form (1704 UTC 26 November 2014)
found at http://aviationweather.gov/adds/tafs/
 
KMTJ 261127Z 2612/2712 VRB03KT P6SM OVC060 
     FM261700 35003KT P6SM SCT080 
     FM262300 05004KT P6SM SKC 
     FM270200 14004KT P6SM SKC